Domselaar, Argentina
Current Conditions -  °F | °C
As of 6:00 AM on Friday 19 Dec 2014 (Local Time) from SAEZ Reporting Station
Clear Clear  
Wind Chill: 75°   Ceiling: Unl
Heat Index: 75°   Visibility: 6mi
Dew Point: 55°   Wind: 12mph
Humidity: 50%   Direction: 330°NNW
Pressure: 29.68"   Gusts: NA
Location:  35.07°S, 58.3°W
Report Text: SAEZ 190900Z 33010KT CAVOK 24/13 Q1005
Loading
Personal Weather Stations






























Interactive Weather Map New forecast layout! Learn more

10-Day Weather Forecast

Advertisements
Track Severe Weather on mobile